Time;durP1;ratioP1;P1;durP2;ratioP2;P2;SDS_P1;SDS_P2;PMS_P1;PMS_P2;Temp;Humidity;BMP_temperature;BMP_pressure;BME280_temperature;BME280_humidity;BME280_pressure;Samples;Min_cycle;Max_cycle;Signal;HPM_P1;HPM_P2
2022/08/24 00:02:16;;;;;;;31.75;16.70;;;;;;;18.46;61.21;101202.31;4792048;29;20064;-76
2022/08/24 00:04:42;;;;;;;28.60;15.52;;;;;;;18.42;61.04;101207.69;4793506;29;20055;-76
2022/08/24 00:07:08;;;;;;;31.63;16.73;;;;;;;18.35;61.60;101207.78;4770524;30;20055;-78
2022/08/24 00:09:35;;;;;;;30.35;16.63;;;;;;;18.32;61.85;101207.84;4761504;29;20067;-79
2022/08/24 00:12:02;;;;;;;27.88;15.38;;;;;;;18.32;62.09;101218.38;4752536;30;20048;-77
2022/08/24 00:14:28;;;;;;;27.70;16.20;;;;;;;18.26;61.76;101213.22;4753192;30;20420;-77
2022/08/24 00:16:54;;;;;;;23.00;16.17;;;;;;;18.21;62.11;101205.41;4751572;30;20051;-76
2022/08/24 00:19:20;;;;;;;26.90;15.65;;;;;;;18.21;62.38;101209.78;4769070;30;20051;-81
2022/08/24 00:21:46;;;;;;;26.10;15.88;;;;;;;18.14;62.62;101213.47;4749867;30;20069;-78
2022/08/24 00:24:13;;;;;;;29.25;16.80;;;;;;;18.12;62.73;101212.63;4769102;29;20509;-75
2022/08/24 00:26:40;;;;;;;26.98;16.55;;;;;;;18.06;62.87;101208.34;4769461;30;20067;-78
2022/08/24 00:29:07;;;;;;;38.15;17.80;;;;;;;18.08;63.09;101218.81;4769867;30;20073;-80
2022/08/24 00:31:33;;;;;;;27.73;16.05;;;;;;;18.04;63.05;101218.88;4762622;29;20051;-77
2022/08/24 00:33:59;;;;;;;25.15;16.00;;;;;;;17.99;63.12;101215.44;4775674;29;20074;-75
2022/08/24 00:36:25;;;;;;;35.22;16.77;;;;;;;17.99;63.28;101222.50;4774846;29;20054;-76
2022/08/24 00:38:52;;;;;;;33.38;16.70;;;;;;;18.00;63.38;101221.59;4771629;29;20416;-76
2022/08/24 00:41:18;;;;;;;27.20;17.33;;;;;;;17.92;63.67;101219.91;4776383;29;20528;-75
2022/08/24 00:43:59;;;;;;;23.20;16.05;;;;;;;17.68;63.72;101189.63;4776786;29;20043;-75
2022/08/24 00:46:33;;;;;;;23.73;14.27;;;;;;;17.90;64.05;101226.97;4745546;29;20052;-76
2022/08/24 00:49:10;;;;;;;28.00;16.90;;;;;;;17.88;64.24;101233.16;4752661;30;20055;-78
2022/08/24 00:51:48;;;;;;;27.33;16.13;;;;;;;17.89;64.32;101229.66;4748589;30;20471;-76
2022/08/24 00:54:17;;;;;;;28.90;17.15;;;;;;;17.83;64.50;101221.84;4769785;30;20051;-75
2022/08/24 00:56:50;;;;;;;30.50;18.73;;;;;;;17.87;65.35;101228.78;4746547;30;20052;-80
2022/08/24 00:59:32;;;;;;;30.65;16.25;;;;;;;17.89;64.86;101225.22;4768320;29;20119;-77
2022/08/24 01:02:05;;;;;;;31.58;16.42;;;;;;;17.87;65.10;101220.91;4764002;30;20048;-77
2022/08/24 01:04:38;;;;;;;28.60;16.38;;;;;;;17.84;65.37;101224.47;4763929;30;20062;-77
2022/08/24 01:07:04;;;;;;;26.73;17.60;;;;;;;17.87;65.30;101232.31;4776709;29;20058;-76
2022/08/24 01:09:30;;;;;;;27.25;17.05;;;;;;;17.84;65.37;101231.47;4749720;30;20051;-74
2022/08/24 01:11:57;;;;;;;26.90;16.95;;;;;;;17.80;65.51;101224.50;4778669;29;20047;-77
2022/08/24 01:14:23;;;;;;;33.35;20.88;;;;;;;17.72;65.59;101224.66;4763106;29;20512;-77
2022/08/24 01:19:44;;;;;;;24.55;17.00;;;;;;;17.80;65.74;101235.03;4773186;29;20063;-77
2022/08/24 01:22:26;;;;;;;20.85;15.25;;;;;;;17.81;65.92;101228.88;4768387;30;20059;-76
2022/08/24 01:24:53;;;;;;;27.27;16.48;;;;;;;17.81;65.85;101224.50;4764628;30;20069;-76
2022/08/24 01:27:19;;;;;;;25.58;16.42;;;;;;;17.77;65.95;101218.41;4767496;30;20087;-78
2022/08/24 01:29:46;;;;;;;24.45;16.42;;;;;;;17.77;66.00;101225.44;4767958;30;20047;-77
2022/08/24 01:32:13;;;;;;;24.88;15.68;;;;;;;17.80;65.85;101233.31;4764556;29;20106;-77
2022/08/24 01:34:39;;;;;;;28.70;16.45;;;;;;;17.79;66.00;101228.94;4754203;30;20043;-77
2022/08/24 01:37:08;;;;;;;19.73;14.75;;;;;;;17.75;66.28;101217.59;4781876;29;20051;-76
2022/08/24 01:39:39;;;;;;;25.45;15.27;;;;;;;17.82;66.15;101223.63;4759359;30;20123;-78
2022/08/24 01:42:07;;;;;;;26.30;15.77;;;;;;;17.73;66.07;101207.97;4767255;29;20058;-76
2022/08/24 01:44:36;;;;;;;29.55;16.92;;;;;;;17.79;66.04;101234.19;4740497;30;20718;-77
2022/08/24 01:47:04;;;;;;;27.88;17.45;;;;;;;17.74;65.84;101230.75;4766679;29;20424;-76
2022/08/24 01:49:33;;;;;;;30.48;17.38;;;;;;;17.61;65.92;101216.91;4770032;29;20051;-77
2022/08/24 01:52:01;;;;;;;26.43;16.47;;;;;;;17.50;66.26;101203.06;4749576;30;20110;-76
2022/08/24 01:54:27;;;;;;;30.42;16.40;;;;;;;17.61;66.23;101215.19;4768352;29;20056;-77
2022/08/24 01:56:54;;;;;;;25.35;16.42;;;;;;;17.71;66.22;101226.44;4761760;30;20147;-77
2022/08/24 01:59:20;;;;;;;26.00;14.98;;;;;;;17.70;66.17;101229.94;4781437;29;20063;-75
2022/08/24 02:01:50;;;;;;;24.23;16.80;;;;;;;17.65;65.88;101226.50;4749562;30;20054;-77
2022/08/24 02:04:17;;;;;;;37.03;17.52;;;;;;;17.53;65.87;101224.94;4767590;30;20055;-77
2022/08/24 02:06:45;;;;;;;30.73;15.85;;;;;;;17.49;66.20;101220.59;4763342;30;20047;-77
2022/08/24 02:09:12;;;;;;;25.30;15.98;;;;;;;17.51;66.07;101229.34;4752113;30;20039;-77
2022/08/24 02:11:40;;;;;;;25.92;16.33;;;;;;;17.49;65.89;101220.59;4761249;30;20045;-77
2022/08/24 02:14:08;;;;;;;21.63;15.80;;;;;;;17.42;65.32;101219.84;4751593;30;20055;-77
2022/08/24 02:16:35;;;;;;;26.67;15.85;;;;;;;17.44;66.07;101227.69;4767845;29;20047;-76
2022/08/24 02:19:03;;;;;;;31.05;17.98;;;;;;;17.46;66.09;101226.81;4751954;29;20146;-76
2022/08/24 02:21:29;;;;;;;27.40;15.43;;;;;;;17.55;66.21;101245.97;4763891;30;20513;-75
2022/08/24 02:23:55;;;;;;;29.65;16.75;;;;;;;17.49;66.15;101231.13;4772606;30;20086;-75
2022/08/24 02:26:22;;;;;;;30.23;16.50;;;;;;;17.48;65.97;101239.06;4774802;30;20050;-76
2022/08/24 02:28:48;;;;;;;27.75;17.27;;;;;;;17.42;66.09;101235.63;4778549;29;20058;-74
2022/08/24 02:31:14;;;;;;;31.38;16.80;;;;;;;17.44;65.73;101244.38;4776245;29;20043;-77
2022/08/24 02:33:42;;;;;;;38.58;23.60;;;;;;;17.49;66.12;101246.06;4746737;30;20578;-78
2022/08/24 02:36:11;;;;;;;40.15;21.92;;;;;;;17.49;66.38;101239.03;4770965;29;20054;-78
2022/08/24 02:38:37;;;;;;;27.30;17.65;;;;;;;17.54;66.50;101244.25;4735291;30;20132;-75
2022/08/24 02:41:10;;;;;;;47.42;26.67;;;;;;;17.50;66.19;101224.13;4770569;30;20055;-76
2022/08/24 02:43:37;;;;;;;35.38;20.70;;;;;;;17.64;66.30;101239.72;4764145;30;20066;-76
2022/08/24 02:46:05;;;;;;;40.35;23.33;;;;;;;17.69;66.31;101251.91;4769942;29;20044;-77
2022/08/24 02:48:31;;;;;;;37.08;22.92;;;;;;;17.69;66.54;101235.22;4740097;29;20039;-76
2022/08/24 02:50:57;;;;;;;52.55;28.27;;;;;;;17.73;66.44;101242.19;4739622;30;20055;-79
2022/08/24 02:53:23;;;;;;;50.70;29.30;;;;;;;17.71;66.56;101242.22;4747091;30;20047;-78
2022/08/24 02:55:49;;;;;;;49.28;31.90;;;;;;;17.77;66.80;101247.38;4770382;29;20111;-77
2022/08/24 02:58:16;;;;;;;35.72;21.40;;;;;;;17.87;66.75;101249.88;4769649;30;20083;-78
2022/08/24 03:00:47;;;;;;;52.28;30.85;;;;;;;17.88;66.87;101238.44;4735972;30;20047;-76
2022/08/24 03:03:16;;;;;;;49.05;30.95;;;;;;;18.01;66.65;101254.94;4784116;29;20047;-77
2022/08/24 03:05:42;;;;;;;44.95;30.98;;;;;;;18.01;66.57;101241.78;4750247;30;20048;-75
2022/08/24 03:08:08;;;;;;;47.85;29.63;;;;;;;18.13;66.82;101252.09;4769282;30;20104;-77
2022/08/24 03:10:34;;;;;;;40.88;25.40;;;;;;;18.16;66.45;101245.91;4777679;29;20060;-78
2022/08/24 03:13:03;;;;;;;51.20;30.40;;;;;;;18.27;66.09;101262.38;4754356;30;20047;-75
2022/08/24 03:15:29;;;;;;;41.47;28.23;;;;;;;18.28;66.26;101258.84;4771756;29;20060;-77
2022/08/24 03:17:56;;;;;;;45.20;27.77;;;;;;;18.36;66.13;101254.31;4766342;30;20055;-78
2022/08/24 03:20:23;;;;;;;51.22;29.10;;;;;;;18.32;65.81;101250.00;4761672;30;20154;-77
2022/08/24 03:22:51;;;;;;;43.08;26.55;;;;;;;18.51;65.95;101265.47;4754330;29;20563;-76
2022/08/24 03:25:19;;;;;;;46.20;28.05;;;;;;;18.57;65.79;101264.47;4740179;29;20051;-78
2022/08/24 03:27:45;;;;;;;46.60;27.17;;;;;;;18.56;65.36;101258.34;4778022;29;20099;-77
2022/08/24 03:30:14;;;;;;;42.85;24.85;;;;;;;18.62;65.38;101274.06;4769094;29;20058;-76
2022/08/24 03:32:41;;;;;;;33.40;22.67;;;;;;;18.71;65.73;101267.72;4732417;30;20135;-77
2022/08/24 03:35:09;;;;;;;42.40;26.42;;;;;;;18.81;65.22;101258.72;4767848;29;20050;-78
2022/08/24 03:37:36;;;;;;;40.85;25.02;;;;;;;18.91;65.37;101264.69;4768512;29;20293;-79
2022/08/24 03:40:05;;;;;;;44.20;26.67;;;;;;;19.04;64.99;101262.69;4770804;29;20188;-77
2022/08/24 03:42:32;;;;;;;38.30;25.95;;;;;;;19.17;64.82;101257.19;4762495;30;20059;-76
2022/08/24 03:44:59;;;;;;;43.50;26.25;;;;;;;19.31;64.73;101264.78;4768228;29;20048;-77
2022/08/24 03:47:25;;;;;;;41.80;26.67;;;;;;;19.45;64.09;101265.34;4747617;29;20591;-77
2022/08/24 03:49:52;;;;;;;44.72;26.45;;;;;;;19.56;63.57;101254.53;4761301;30;20062;-77
2022/08/24 03:52:19;;;;;;;40.13;26.25;;;;;;;19.71;63.09;101248.03;4768495;30;20370;-78
2022/08/24 03:54:45;;;;;;;40.05;26.42;;;;;;;19.92;62.70;101259.00;4765643;29;20113;-77
2022/08/24 03:57:12;;;;;;;39.35;25.88;;;;;;;20.10;62.27;101266.47;4768042;29;20536;-78
2022/08/24 03:59:39;;;;;;;38.95;26.83;;;;;;;20.25;61.62;101251.09;4737009;30;20070;-78
2022/08/24 04:02:06;;;;;;;40.85;25.98;;;;;;;20.51;61.08;101265.41;4769389;29;20469;-78
2022/08/24 04:04:32;;;;;;;42.60;25.70;;;;;;;20.59;60.25;101266.06;4763401;29;20051;-77
2022/08/24 04:06:58;;;;;;;44.50;27.50;;;;;;;20.69;59.85;101261.41;4785739;29;20051;-76
2022/08/24 04:09:26;;;;;;;52.95;32.33;;;;;;;20.74;59.71;101260.34;4781429;29;20047;-76
2022/08/24 04:11:52;;;;;;;55.80;31.98;;;;;;;20.98;59.36;101268.53;4759972;29;20043;-77
2022/08/24 04:14:21;;;;;;;42.75;28.73;;;;;;;21.15;58.53;101260.09;4757188;29;20140;-80
2022/08/24 04:16:52;;;;;;;44.08;27.58;;;;;;;21.32;58.12;101259.56;4774441;29;20047;-79
2022/08/24 04:19:27;;;;;;;35.85;23.60;;;;;;;21.47;57.44;101270.59;4762233;29;20100;-76
2022/08/24 04:21:57;;;;;;;39.55;23.25;;;;;;;21.59;56.87;101261.41;4758327;29;20054;-77
2022/08/24 04:24:25;;;;;;;33.58;21.88;;;;;;;21.79;56.75;101268.72;4754815;29;20126;-76
2022/08/24 04:26:51;;;;;;;35.47;21.67;;;;;;;22.01;55.84;101268.00;4778701;29;20399;-79
2022/08/24 04:29:19;;;;;;;34.45;20.38;;;;;;;22.09;55.43;101271.28;4756579;29;20058;-78
2022/08/24 04:31:54;;;;;;;34.70;19.88;;;;;;;22.30;54.68;101267.00;4757471;29;20063;-76
2022/08/24 04:34:21;;;;;;;33.25;19.42;;;;;;;22.44;54.37;101271.88;4784858;29;20131;-76
2022/08/24 04:36:48;;;;;;;29.45;20.15;;;;;;;22.70;53.34;101278.03;4769672;29;20110;-77
2022/08/24 04:39:14;;;;;;;33.80;20.17;;;;;;;22.91;52.76;101257.81;4756308;29;20050;-79
2022/08/24 04:41:56;;;;;;;32.23;18.83;;;;;;;23.30;52.40;101275.81;4768846;29;20062;-76
2022/08/24 04:44:23;;;;;;;34.58;20.05;;;;;;;23.48;51.45;101265.38;4771977;29;20039;-76
2022/08/24 04:46:49;;;;;;;33.70;19.42;;;;;;;23.69;51.37;101263.66;4770317;29;20098;-77
2022/08/24 04:49:15;;;;;;;30.20;20.05;;;;;;;23.84;50.89;101256.84;4755974;29;20630;-77
2022/08/24 04:51:42;;;;;;;29.40;18.60;;;;;;;24.09;50.64;101255.00;4790115;29;20043;-76
2022/08/24 04:54:09;;;;;;;30.55;18.42;;;;;;;24.23;49.88;101263.22;4771147;29;20052;-77
2022/08/24 04:56:37;;;;;;;31.05;17.67;;;;;;;24.31;49.82;101257.56;4769996;29;20130;-77
2022/08/24 04:59:04;;;;;;;29.48;17.75;;;;;;;24.46;49.49;101245.41;4749800;29;20582;-78
2022/08/24 05:01:33;;;;;;;31.05;17.27;;;;;;;24.55;49.08;101238.78;4765369;29;20047;-77
2022/08/24 05:04:03;;;;;;;26.20;18.13;;;;;;;24.70;48.37;101253.22;4773531;29;20051;-76
2022/08/24 05:06:31;;;;;;;28.13;17.83;;;;;;;24.67;48.43;101244.44;4752035;29;20047;-75
2022/08/24 05:09:01;;;;;;;30.85;17.67;;;;;;;24.76;48.13;101239.66;4774291;29;20043;-75
2022/08/24 05:11:28;;;;;;;26.08;17.42;;;;;;;25.02;47.71;101242.91;4773047;29;20195;-78
2022/08/24 05:13:56;;;;;;;28.85;16.25;;;;;;;25.36;47.26;101244.84;4769666;29;20956;-76
2022/08/24 05:16:24;;;;;;;29.40;16.90;;;;;;;25.93;46.57;101249.19;4768293;29;20047;-76
2022/08/24 05:18:50;;;;;;;28.65;16.35;;;;;;;26.63;45.78;101239.41;4770943;29;20090;-75
2022/08/24 05:21:19;;;;;;;34.80;16.05;;;;;;;28.30;44.23;101240.66;4763179;29;20137;-78
2022/08/24 05:23:46;;;;;;;29.45;15.32;;;;;;;30.02;41.42;101226.13;4769963;29;20050;-75
2022/08/24 05:26:18;;;;;;;33.80;13.95;;;;;;;31.18;38.40;101226.03;4771416;29;20122;-76
2022/08/24 05:28:46;;;;;;;32.50;13.93;;;;;;;32.39;35.88;101227.69;4770153;29;20660;-76
2022/08/24 05:31:16;;;;;;;27.25;13.43;;;;;;;32.81;33.86;101228.88;4788048;29;20424;-75
2022/08/24 05:33:42;;;;;;;26.23;13.13;;;;;;;33.73;33.24;101227.66;4769903;29;20133;-77
2022/08/24 05:36:30;;;;;;;24.38;13.30;;;;;;;34.41;31.40;101224.53;4748174;29;20119;-75
2022/08/24 05:38:59;;;;;;;31.77;13.98;;;;;;;34.51;30.68;101241.69;4770350;29;20150;-77
2022/08/24 05:41:26;;;;;;;21.08;12.38;;;;;;;35.20;29.87;101224.81;4788501;29;20055;-74
2022/08/24 05:44:08;;;;;;;20.77;12.63;;;;;;;36.71;28.37;101235.97;4784923;29;20554;-77
2022/08/24 05:46:34;;;;;;;25.27;12.05;;;;;;;37.67;27.52;101229.16;4759572;29;20123;-76
2022/08/24 05:49:01;;;;;;;19.65;11.35;;;;;;;38.76;25.92;101237.81;4764267;29;20051;-76
2022/08/24 05:51:32;;;;;;;18.48;10.75;;;;;;;40.22;24.03;101230.09;4773646;29;20107;-76
2022/08/24 05:54:08;;;;;;;16.73;10.20;;;;;;;41.17;22.83;101232.91;4782441;29;20053;-76
2022/08/24 05:56:46;;;;;;;22.88;10.25;;;;;;;41.92;21.95;101223.06;4780497;29;20051;-78
2022/08/24 05:59:14;;;;;;;23.60;10.00;;;;;;;42.38;21.04;101234.88;4797462;29;20067;-75
2022/08/24 06:01:41;;;;;;;17.08;9.32;;;;;;;43.10;20.37;101233.22;4785060;29;20137;-78
2022/08/24 06:04:07;;;;;;;19.13;9.70;;;;;;;43.92;19.29;101230.97;4770390;29;20137;-78
2022/08/24 06:06:33;;;;;;;16.40;9.25;;;;;;;44.32;18.51;101232.31;4788337;29;20267;-78
2022/08/24 06:09:00;;;;;;;18.67;9.55;;;;;;;43.15;18.89;101229.91;4783094;29;20046;-78
2022/08/24 06:11:30;;;;;;;20.15;8.88;;;;;;;43.54;18.40;101233.22;4766901;29;20034;-76
2022/08/24 06:14:00;;;;;;;16.65;9.48;;;;;;;43.92;18.05;101230.16;4780713;29;20047;-75
2022/08/24 06:16:29;;;;;;;12.88;8.05;;;;;;;44.90;17.23;101226.44;4793319;29;20580;-78
2022/08/24 06:18:55;;;;;;;13.55;8.50;;;;;;;45.89;16.29;101231.34;4783848;29;20061;-78
2022/08/24 06:21:25;;;;;;;14.07;8.63;;;;;;;46.67;15.89;101220.50;4775626;29;20118;-76
2022/08/24 06:23:51;;;;;;;14.73;8.93;;;;;;;47.53;14.98;101229.25;4773833;29;20075;-79
2022/08/24 06:29:06;;;;;;;17.90;8.52;;;;;;;48.77;13.99;101229.34;4758968;29;20455;-77
2022/08/24 06:31:38;;;;;;;12.60;7.85;;;;;;;49.51;13.43;101231.78;4767413;29;20054;-78
2022/08/24 06:34:04;;;;;;;9.38;6.63;;;;;;;49.40;12.81;101227.91;4757282;29;20035;-77
2022/08/24 06:36:33;;;;;;;10.05;6.63;;;;;;;49.60;12.52;101229.50;4772793;29;20058;-77
2022/08/24 06:38:59;;;;;;;;;;;;;;;49.77;12.18;101223.25;4759309;29;20123;-76
2022/08/24 06:41:26;;;;;;;10.82;6.18;;;;;;;50.13;12.40;101221.28;4758158;29;20318;-77
2022/08/24 06:43:58;;;;;;;8.70;5.90;;;;;;;50.47;11.41;101230.56;4751614;29;20050;-80
2022/08/24 06:46:36;;;;;;;7.68;5.63;;;;;;;50.28;11.60;101227.13;4772523;29;20055;-78
2022/08/24 06:49:04;;;;;;;9.35;4.45;;;;;;;49.93;11.89;101225.28;4758398;29;20039;-79
2022/08/24 06:51:36;;;;;;;6.25;5.40;;;;;;;50.76;10.70;101227.78;4759450;29;20431;-76
2022/08/24 06:54:02;;;;;;;7.88;5.65;;;;;;;50.77;9.69;101228.63;4755671;29;20073;-79
2022/08/24 06:56:29;;;;;;;7.32;5.45;;;;;;;51.10;10.34;101226.16;4772322;29;20054;-78
2022/08/24 06:58:56;;;;;;;9.65;5.20;;;;;;;51.20;9.80;101229.97;4773032;29;20063;-78
2022/08/24 07:01:25;;;;;;;6.63;5.20;;;;;;;50.58;9.49;101219.69;4770467;29;20432;-77
2022/08/24 07:03:53;;;;;;;8.18;4.90;;;;;;;50.47;10.08;101215.88;4757763;29;20131;-79
2022/08/24 07:06:41;;;;;;;11.90;5.13;;;;;;;50.50;9.99;101229.25;4760505;29;20051;-81
2022/08/24 07:09:09;;;;;;;10.30;4.70;;;;;;;51.36;9.28;101225.50;4757177;29;20118;-78
2022/08/24 07:11:38;;;;;;;6.50;4.60;;;;;;;52.11;9.15;101222.41;4743423;29;20657;-77
2022/08/24 07:14:07;;;;;;;12.07;5.30;;;;;;;52.70;9.05;101218.06;4773920;29;20051;-80
2022/08/24 07:16:35;;;;;;;7.68;4.65;;;;;;;53.56;8.17;101214.56;4760605;29;20144;-79
2022/08/24 07:19:08;;;;;;;4.93;4.43;;;;;;;54.32;8.02;101212.44;4756436;29;20051;-79
2022/08/24 07:21:38;;;;;;;6.05;4.38;;;;;;;53.80;8.46;101215.00;4757981;29;20043;-80
2022/08/24 07:24:05;;;;;;;6.43;4.53;;;;;;;54.34;8.06;101207.44;4757229;29;20043;-78
2022/08/24 07:26:38;;;;;;;7.07;4.80;;;;;;;54.81;7.27;101215.84;4771721;29;20086;-77
2022/08/24 07:29:14;;;;;;;6.80;4.20;;;;;;;54.82;7.47;101200.81;4772496;29;20038;-78
2022/08/24 07:31:47;;;;;;;5.93;3.97;;;;;;;55.16;7.23;101197.44;4789997;29;20100;-80
2022/08/24 07:34:40;;;;;;;7.68;4.63;;;;;;;55.19;7.01;101205.25;4770178;29;20046;-77
2022/08/24 07:37:07;;;;;;;5.60;4.00;;;;;;;54.24;7.09;101201.78;4775654;29;20058;-75
2022/08/24 07:39:38;;;;;;;;;;;;;;;54.54;7.22;101203.00;4773987;29;20057;-76
2022/08/24 07:42:05;;;;;;;5.10;4.55;;;;;;;54.94;7.22;101201.38;4767417;29;19958;-77
2022/08/24 07:44:31;;;;;;;7.38;4.03;;;;;;;55.55;6.56;101199.56;4770924;29;20049;-77
2022/08/24 07:46:58;;;;;;;7.32;4.40;;;;;;;56.33;6.15;101193.69;4788455;29;20058;-76
2022/08/24 07:49:27;;;;;;;5.30;4.15;;;;;;;56.63;6.27;101201.00;4757206;29;20141;-77
2022/08/24 07:51:53;;;;;;;4.13;3.72;;;;;;;56.41;6.34;101184.66;4762657;29;20074;-77
2022/08/24 07:54:20;;;;;;;4.55;3.72;;;;;;;56.08;6.45;101192.69;4784647;29;20119;-77
2022/08/24 07:56:49;;;;;;;5.35;4.10;;;;;;;54.97;5.59;101186.88;4762499;29;20051;-76
2022/08/24 07:59:18;;;;;;;8.13;3.72;;;;;;;55.56;5.95;101192.88;4773496;29;20063;-81
2022/08/24 08:01:45;;;;;;;9.07;4.45;;;;;;;55.47;5.82;101184.28;4756568;29;20520;-77
2022/08/24 08:04:20;;;;;;;4.43;4.03;;;;;;;55.09;5.62;101179.06;4756957;29;20120;-78
2022/08/24 08:06:47;;;;;;;4.13;3.80;;;;;;;55.66;6.19;101187.31;4758216;29;20417;-77
2022/08/24 08:09:16;;;;;;;4.13;3.70;;;;;;;54.55;5.41;101185.19;4787283;29;20533;-77
2022/08/24 08:11:45;;;;;;;6.95;3.67;;;;;;;53.15;6.13;101177.06;4776580;29;20047;-80
2022/08/24 08:14:13;;;;;;;4.13;3.65;;;;;;;53.00;6.39;101175.03;4779298;29;20047;-76
2022/08/24 08:16:41;;;;;;;6.75;3.70;;;;;;;53.46;6.22;101170.88;4762300;29;20051;-77
2022/08/24 08:19:07;;;;;;;5.38;3.80;;;;;;;54.15;5.87;101176.47;4779041;29;20130;-77
2022/08/24 08:24:18;;;;;;;5.32;3.30;;;;;;;53.83;5.94;101163.56;4777588;29;20050;-77
2022/08/24 08:26:49;;;;;;;6.03;3.20;;;;;;;54.37;5.60;101167.06;4760391;29;20055;-76
2022/08/24 08:29:26;;;;;;;7.38;3.60;;;;;;;54.50;5.06;101166.53;4778521;29;20047;-78
2022/08/24 08:31:55;;;;;;;8.70;3.25;;;;;;;52.72;6.55;101138.13;4771654;29;20100;-78
2022/08/24 08:34:26;;;;;;;4.13;3.47;;;;;;;53.33;6.42;101163.00;4778861;29;20043;-78
2022/08/24 08:36:53;;;;;;;4.50;3.33;;;;;;;54.13;5.86;101160.06;4792143;29;20047;-77
2022/08/24 08:39:21;;;;;;;6.82;3.67;;;;;;;54.70;5.21;101171.28;4775837;29;20044;-79
2022/08/24 08:42:22;;;;;;;5.72;3.45;;;;;;;52.90;5.49;101155.47;4757768;29;20493;-78
2022/08/24 08:45:40;;;;;;;5.18;3.80;;;;;;;52.47;6.50;101157.31;4770244;29;20157;-78
2022/08/24 08:48:50;;;;;;;5.20;3.10;;;;;;;53.12;6.02;101157.31;4723640;29;20059;-80
2022/08/24 08:51:25;;;;;;;4.60;3.43;;;;;;;52.57;6.36;101151.84;4771062;29;20520;-78
2022/08/24 08:53:55;;;;;;;4.32;3.53;;;;;;;51.41;6.66;101166.53;4757477;29;20043;-75
2022/08/24 08:56:54;;;;;;;3.65;3.13;;;;;;;51.36;7.04;101159.00;4779487;29;20130;-77
2022/08/24 08:59:54;;;;;;;9.02;2.85;;;;;;;52.15;6.65;101142.25;4776547;29;20209;-79
2022/08/24 09:02:41;;;;;;;8.35;3.20;;;;;;;51.02;6.48;101155.41;4786569;29;20055;-79
2022/08/24 09:05:30;;;;;;;7.03;3.00;;;;;;;51.23;6.60;101154.66;4747158;29;20051;-78
2022/08/24 09:08:17;;;;;;;7.00;3.03;;;;;;;51.41;6.53;101149.09;4757021;29;20054;-78
2022/08/24 09:11:20;;;;;;;4.35;2.80;;;;;;;51.73;6.41;101140.94;4756302;29;20047;-78
2022/08/24 09:13:59;;;;;;;4.93;3.42;;;;;;;51.96;5.48;101142.63;4770822;29;20054;-80
2022/08/24 09:17:11;;;;;;;4.97;2.95;;;;;;;51.06;5.84;101153.81;4774606;29;20074;-79
2022/08/24 09:20:12;;;;;;;6.03;2.40;;;;;;;49.68;6.53;101146.22;4757380;29;20073;-78
2022/08/24 09:22:42;;;;;;;4.95;2.60;;;;;;;50.69;6.57;101138.53;4756286;29;20083;-79
2022/08/24 09:25:23;;;;;;;7.00;2.75;;;;;;;51.45;5.83;101140.00;4771400;29;20051;-79
2022/08/24 09:28:21;;;;;;;3.10;2.50;;;;;;;50.55;6.35;101132.47;4759109;29;20786;-77
2022/08/24 09:31:18;;;;;;;4.90;2.55;;;;;;;49.10;6.13;101139.63;4785758;29;20425;-77
2022/08/24 09:34:04;;;;;;;3.78;2.40;;;;;;;49.30;6.48;101133.75;4771103;29;20077;-78
2022/08/24 09:36:52;;;;;;;4.10;2.60;;;;;;;48.96;6.49;101136.22;4784710;29;20530;-76
2022/08/24 09:39:37;;;;;;;5.43;2.35;;;;;;;48.84;6.78;101120.50;4786529;29;20071;-80
2022/08/24 09:42:16;;;;;;;5.70;2.42;;;;;;;49.82;6.49;101124.69;4788902;29;20423;-78
2022/08/24 09:45:04;;;;;;;4.90;2.92;;;;;;;50.91;6.51;101126.72;4786912;29;20107;-77
2022/08/24 09:47:49;;;;;;;3.60;2.80;;;;;;;50.21;6.35;101131.56;4772390;29;20054;-77
2022/08/24 09:50:51;;;;;;;3.60;2.35;;;;;;;49.69;6.32;101125.78;4773789;29;20043;-77
2022/08/24 09:53:41;;;;;;;5.22;2.30;;;;;;;49.22;6.64;101117.53;4782709;29;20623;-75
2022/08/24 09:56:32;;;;;;;5.25;2.30;;;;;;;49.62;6.14;101118.72;4761960;29;20043;-79
2022/08/24 09:59:36;;;;;;;6.72;2.50;;;;;;;49.17;6.58;101122.94;4771323;29;20077;-78
2022/08/24 10:02:16;;;;;;;2.53;2.25;;;;;;;48.29;6.79;101118.75;4756770;29;20071;-76
2022/08/24 10:05:17;;;;;;;3.65;2.20;;;;;;;46.99;7.39;101141.53;4791775;29;20047;-80
2022/08/24 10:07:57;;;;;;;2.75;2.20;;;;;;;46.71;7.47;101120.75;4784464;29;20193;-78
2022/08/24 10:10:28;;;;;;;9.88;2.88;;;;;;;47.54;7.41;101117.97;4785220;29;20055;-78
2022/08/24 10:13:07;;;;;;;6.40;2.30;;;;;;;48.42;6.95;101136.22;4772146;29;20102;-76
2022/08/24 10:16:02;;;;;;;3.85;2.22;;;;;;;47.60;6.76;101118.97;4771566;29;20234;-78
2022/08/24 10:18:41;;;;;;;6.22;2.30;;;;;;;47.14;7.10;101110.06;4761187;29;20065;-79
2022/08/24 10:21:34;;;;;;;3.50;2.00;;;;;;;47.28;7.35;101114.41;4775279;29;20055;-78
2022/08/24 10:24:00;;;;;;;3.28;1.90;;;;;;;46.90;8.09;101112.59;4777403;29;20047;-75
2022/08/24 10:26:38;;;;;;;3.15;2.75;;;;;;;47.66;7.45;101110.63;4786571;29;20043;-77
2022/08/24 10:29:32;;;;;;;6.05;2.47;;;;;;;48.33;7.29;101105.38;4785934;29;20066;-76
2022/08/24 10:32:17;;;;;;;3.92;2.15;;;;;;;48.56;6.49;101140.44;4756465;29;20085;-75
2022/08/24 10:35:05;;;;;;;4.18;2.00;;;;;;;46.88;6.92;101109.25;4770264;29;20584;-76
2022/08/24 10:41:05;;;;;;;5.40;1.85;;;;;;;44.77;8.09;101100.16;4771305;29;20047;-77
2022/08/24 10:43:58;;;;;;;5.63;1.75;;;;;;;42.89;8.90;101084.44;4750970;29;20047;-76
2022/08/24 10:46:36;;;;;;;3.13;1.83;;;;;;;41.31;9.48;101113.91;4791054;29;20047;-77
2022/08/24 10:49:05;;;;;;;3.58;1.90;;;;;;;39.78;10.63;101103.38;4773850;29;20047;-77
2022/08/24 10:52:07;;;;;;;4.13;1.83;;;;;;;39.13;11.07;101094.25;4758111;29;20070;-76
2022/08/24 10:54:35;;;;;;;5.28;1.65;;;;;;;38.17;11.53;101105.44;4789209;29;20047;-75
2022/08/24 10:57:14;;;;;;;3.78;1.83;;;;;;;37.33;12.18;101108.63;4788663;29;20520;-76
2022/08/24 10:59:49;;;;;;;3.83;1.80;;;;;;;36.56;12.58;101111.81;4772527;29;20523;-78
2022/08/24 11:02:32;;;;;;;2.28;1.50;;;;;;;36.15;13.18;101098.63;4751974;29;20054;-80
2022/08/24 11:05:01;;;;;;;2.88;1.63;;;;;;;35.80;12.90;101097.44;4758385;29;20046;-77
2022/08/24 11:07:28;;;;;;;3.47;1.67;;;;;;;35.30;13.92;101103.97;4777803;29;20061;-77
2022/08/24 11:09:56;;;;;;;3.33;1.88;;;;;;;34.94;13.93;101098.28;4793248;29;20058;-76
2022/08/24 11:12:29;;;;;;;4.00;1.73;;;;;;;34.68;14.14;101109.63;4773735;29;20055;-76
2022/08/24 11:15:03;;;;;;;3.33;1.75;;;;;;;34.35;14.33;101098.13;4758632;29;20191;-78
2022/08/24 11:17:32;;;;;;;4.25;1.40;;;;;;;34.16;14.84;101096.25;4788481;29;20152;-78
2022/08/24 11:20:01;;;;;;;1.73;1.40;;;;;;;34.00;14.80;101086.78;4766427;29;20039;-77
2022/08/24 11:22:40;;;;;;;2.05;1.30;;;;;;;33.93;14.72;101099.97;4777616;29;20047;-77
2022/08/24 11:25:13;;;;;;;4.13;1.65;;;;;;;33.73;14.99;101079.25;4760667;29;20042;-77
2022/08/24 11:27:44;;;;;;;2.67;1.40;;;;;;;33.60;15.03;101083.03;4761844;29;20135;-78
2022/08/24 11:30:24;;;;;;;4.82;1.42;;;;;;;33.41;15.22;101089.16;4787946;29;20047;-75
2022/08/24 11:33:03;;;;;;;2.22;1.50;;;;;;;33.18;15.24;101102.75;4788721;29;20058;-78
2022/08/24 11:35:40;;;;;;;2.90;1.40;;;;;;;33.01;15.91;101096.06;4794417;29;20047;-78
2022/08/24 11:38:24;;;;;;;4.13;1.48;;;;;;;32.87;15.72;101099.94;4759076;29;20500;-80
2022/08/24 11:40:55;;;;;;;3.58;1.50;;;;;;;32.76;16.27;101089.16;4787357;29;20043;-80
2022/08/24 11:43:37;;;;;;;4.60;1.35;;;;;;;32.58;16.52;101094.22;4787209;29;20054;-76
2022/08/24 11:46:28;;;;;;;3.85;1.40;;;;;;;32.34;16.74;101083.63;4771321;29;20039;-75
2022/08/24 11:49:16;;;;;;;2.95;1.83;;;;;;;32.32;16.93;101081.06;4772241;29;20051;-76
2022/08/24 11:51:54;;;;;;;3.00;1.35;;;;;;;32.20;16.91;101082.91;4771595;29;20049;-75
2022/08/24 11:54:59;;;;;;;2.67;1.50;;;;;;;32.13;16.81;101073.59;4786575;29;20405;-76
2022/08/24 11:57:33;;;;;;;4.40;1.40;;;;;;;32.09;16.96;101070.31;4787073;29;20070;-77